Palito Blanco, Texas
Current Conditions -  °F | °C
As of 11:53 PM on Thursday 30 Oct 2014 (Local Time) from KALI Reporting Station
Clear Clear  
Wind Chill: 70°   Ceiling: Unl
Heat Index: 70°   Visibility: 10mi
Dew Point: 68°   Wind: 5mph
Humidity: 93%   Direction: 140°SE
Pressure: 30.08"   Gusts: NA
Location:  27.6821°N, 98.1034°W
Report Text: KALI 310453Z AUTO 14004KT 10SM CLR 21/20 A3008 RMK AO2 SLP182 T02110200
Loading
Personal Weather Stations






























Interactive Weather Map New forecast layout! Learn more

10-Day Weather Forecast

Advertisements
Track Severe Weather on mobile